sensor_id;sensor_type;location;lat;lon;timestamp;temperature;humidity
11989;DHT22;6054;50.966;7.094;2022-08-01T00:00:49;30.70;50.80
11989;DHT22;6054;50.966;7.094;2022-08-01T00:03:15;30.70;50.30
11989;DHT22;6054;50.966;7.094;2022-08-01T00:05:42;30.70;50.30
11989;DHT22;6054;50.966;7.094;2022-08-01T00:08:10;30.70;50.20
11989;DHT22;6054;50.966;7.094;2022-08-01T00:10:37;30.60;49.90
11989;DHT22;6054;50.966;7.094;2022-08-01T00:13:04;30.80;49.80
11989;DHT22;6054;50.966;7.094;2022-08-01T00:15:32;30.60;49.50
11989;DHT22;6054;50.966;7.094;2022-08-01T00:17:59;30.60;49.60
11989;DHT22;6054;50.966;7.094;2022-08-01T00:20:27;30.60;49.50
11989;DHT22;6054;50.966;7.094;2022-08-01T00:22:53;30.60;50.30
11989;DHT22;6054;50.966;7.094;2022-08-01T00:25:20;30.50;48.90
11989;DHT22;6054;50.966;7.094;2022-08-01T00:27:47;30.40;48.90
11989;DHT22;6054;50.966;7.094;2022-08-01T00:30:14;30.30;48.80
11989;DHT22;6054;50.966;7.094;2022-08-01T00:32:42;30.30;48.80
11989;DHT22;6054;50.966;7.094;2022-08-01T00:35:09;30.20;49.00
11989;DHT22;6054;50.966;7.094;2022-08-01T00:37:36;30.10;49.10
11989;DHT22;6054;50.966;7.094;2022-08-01T00:40:03;30.10;49.10
11989;DHT22;6054;50.966;7.094;2022-08-01T00:42:30;30.00;49.70
11989;DHT22;6054;50.966;7.094;2022-08-01T00:44:57;30.00;49.50
11989;DHT22;6054;50.966;7.094;2022-08-01T00:47:24;30.00;49.90
11989;DHT22;6054;50.966;7.094;2022-08-01T00:49:52;30.00;50.00
11989;DHT22;6054;50.966;7.094;2022-08-01T00:52:19;29.90;49.90
11989;DHT22;6054;50.966;7.094;2022-08-01T00:54:46;29.80;50.30
11989;DHT22;6054;50.966;7.094;2022-08-01T00:57:12;30.10;50.50
11989;DHT22;6054;50.966;7.094;2022-08-01T00:59:40;29.80;50.60
11989;DHT22;6054;50.966;7.094;2022-08-01T01:02:07;29.80;51.00
11989;DHT22;6054;50.966;7.094;2022-08-01T01:04:34;29.80;50.90
11989;DHT22;6054;50.966;7.094;2022-08-01T01:07:08;29.80;50.40
11989;DHT22;6054;50.966;7.094;2022-08-01T01:09:42;29.80;51.60
11989;DHT22;6054;50.966;7.094;2022-08-01T01:12:15;29.80;51.00
11989;DHT22;6054;50.966;7.094;2022-08-01T01:14:51;29.70;51.20
11989;DHT22;6054;50.966;7.094;2022-08-01T01:17:26;30.00;51.50
11989;DHT22;6054;50.966;7.094;2022-08-01T01:19:56;29.70;51.50
11989;DHT22;6054;50.966;7.094;2022-08-01T01:22:33;29.70;51.60
11989;DHT22;6054;50.966;7.094;2022-08-01T01:25:09;29.70;51.90
11989;DHT22;6054;50.966;7.094;2022-08-01T01:27:50;29.80;51.80
11989;DHT22;6054;50.966;7.094;2022-08-01T01:30:19;29.80;52.00
11989;DHT22;6054;50.966;7.094;2022-08-01T01:32:49;29.80;51.80
11989;DHT22;6054;50.966;7.094;2022-08-01T01:35:21;30.00;52.00
11989;DHT22;6054;50.966;7.094;2022-08-01T01:37:51;29.80;51.80
11989;DHT22;6054;50.966;7.094;2022-08-01T01:40:20;29.80;51.80
11989;DHT22;6054;50.966;7.094;2022-08-01T01:42:49;29.80;51.70
11989;DHT22;6054;50.966;7.094;2022-08-01T01:45:19;29.80;51.40
11989;DHT22;6054;50.966;7.094;2022-08-01T01:47:48;29.80;51.60
11989;DHT22;6054;50.966;7.094;2022-08-01T01:50:15;29.70;51.40
11989;DHT22;6054;50.966;7.094;2022-08-01T01:52:44;29.70;51.40
11989;DHT22;6054;50.966;7.094;2022-08-01T01:55:12;29.70;51.40
11989;DHT22;6054;50.966;7.094;2022-08-01T01:57:41;29.70;51.40
11989;DHT22;6054;50.966;7.094;2022-08-01T02:00:11;29.70;51.40
11989;DHT22;6054;50.966;7.094;2022-08-01T02:02:41;29.70;51.40
11989;DHT22;6054;50.966;7.094;2022-08-01T02:05:10;29.80;51.50
11989;DHT22;6054;50.966;7.094;2022-08-01T02:07:37;29.60;51.40
11989;DHT22;6054;50.966;7.094;2022-08-01T02:10:06;29.60;51.30
11989;DHT22;6054;50.966;7.094;2022-08-01T02:12:37;29.60;51.30
11989;DHT22;6054;50.966;7.094;2022-08-01T02:15:06;29.60;51.20
11989;DHT22;6054;50.966;7.094;2022-08-01T02:17:39;29.60;51.20
11989;DHT22;6054;50.966;7.094;2022-08-01T02:20:10;29.50;51.10
11989;DHT22;6054;50.966;7.094;2022-08-01T02:22:41;29.50;51.10
11989;DHT22;6054;50.966;7.094;2022-08-01T02:25:15;29.50;51.20
11989;DHT22;6054;50.966;7.094;2022-08-01T02:27:47;29.50;51.20
11989;DHT22;6054;50.966;7.094;2022-08-01T02:30:16;29.40;51.30
11989;DHT22;6054;50.966;7.094;2022-08-01T02:32:46;29.40;51.20
11989;DHT22;6054;50.966;7.094;2022-08-01T02:35:20;29.40;51.40
11989;DHT22;6054;50.966;7.094;2022-08-01T02:37:48;29.40;51.30
11989;DHT22;6054;50.966;7.094;2022-08-01T02:40:16;29.40;51.10
11989;DHT22;6054;50.966;7.094;2022-08-01T02:42:47;29.40;51.50
11989;DHT22;6054;50.966;7.094;2022-08-01T02:45:17;29.40;51.50
11989;DHT22;6054;50.966;7.094;2022-08-01T02:47:45;29.40;51.50
11989;DHT22;6054;50.966;7.094;2022-08-01T02:50:16;29.40;51.60
11989;DHT22;6054;50.966;7.094;2022-08-01T02:52:47;29.40;51.60
11989;DHT22;6054;50.966;7.094;2022-08-01T02:55:14;29.40;51.50
11989;DHT22;6054;50.966;7.094;2022-08-01T02:57:42;29.40;51.50
11989;DHT22;6054;50.966;7.094;2022-08-01T03:00:11;29.40;51.50
11989;DHT22;6054;50.966;7.094;2022-08-01T03:02:39;29.40;51.30
11989;DHT22;6054;50.966;7.094;2022-08-01T03:05:07;29.40;51.60
11989;DHT22;6054;50.966;7.094;2022-08-01T03:07:36;29.40;51.60
11989;DHT22;6054;50.966;7.094;2022-08-01T03:10:05;29.40;51.40
11989;DHT22;6054;50.966;7.094;2022-08-01T03:12:33;29.30;51.60
11989;DHT22;6054;50.966;7.094;2022-08-01T03:15:02;29.30;51.40
11989;DHT22;6054;50.966;7.094;2022-08-01T03:17:30;29.30;51.60
11989;DHT22;6054;50.966;7.094;2022-08-01T03:19:59;29.30;51.60
11989;DHT22;6054;50.966;7.094;2022-08-01T03:22:29;29.30;51.60
11989;DHT22;6054;50.966;7.094;2022-08-01T03:24:59;29.30;51.50
11989;DHT22;6054;50.966;7.094;2022-08-01T03:27:27;29.30;51.60
11989;DHT22;6054;50.966;7.094;2022-08-01T03:29:55;29.30;51.60
11989;DHT22;6054;50.966;7.094;2022-08-01T03:32:23;29.30;51.70
11989;DHT22;6054;50.966;7.094;2022-08-01T03:34:50;29.30;51.60
11989;DHT22;6054;50.966;7.094;2022-08-01T03:37:29;29.30;51.30
11989;DHT22;6054;50.966;7.094;2022-08-01T03:40:03;29.20;51.30
11989;DHT22;6054;50.966;7.094;2022-08-01T03:42:32;29.20;51.60
11989;DHT22;6054;50.966;7.094;2022-08-01T03:45:03;29.20;51.40
11989;DHT22;6054;50.966;7.094;2022-08-01T03:47:32;29.20;51.50
11989;DHT22;6054;50.966;7.094;2022-08-01T03:50:02;29.20;51.50
11989;DHT22;6054;50.966;7.094;2022-08-01T03:52:30;29.20;51.50
11989;DHT22;6054;50.966;7.094;2022-08-01T03:55:01;29.10;51.40
11989;DHT22;6054;50.966;7.094;2022-08-01T03:57:29;29.10;51.50
11989;DHT22;6054;50.966;7.094;2022-08-01T03:59:56;29.10;51.10
11989;DHT22;6054;50.966;7.094;2022-08-01T04:02:25;29.10;51.50
11989;DHT22;6054;50.966;7.094;2022-08-01T04:04:53;29.10;51.30
11989;DHT22;6054;50.966;7.094;2022-08-01T04:07:25;29.10;51.30
11989;DHT22;6054;50.966;7.094;2022-08-01T04:09:52;29.10;51.50
11989;DHT22;6054;50.966;7.094;2022-08-01T04:12:20;29.10;51.30
11989;DHT22;6054;50.966;7.094;2022-08-01T04:14:48;29.10;51.10
11989;DHT22;6054;50.966;7.094;2022-08-01T04:17:15;29.10;51.40
11989;DHT22;6054;50.966;7.094;2022-08-01T04:19:42;29.10;51.00
11989;DHT22;6054;50.966;7.094;2022-08-01T04:22:09;29.00;51.10
11989;DHT22;6054;50.966;7.094;2022-08-01T04:24:37;29.00;51.60
11989;DHT22;6054;50.966;7.094;2022-08-01T04:27:09;29.00;51.40
11989;DHT22;6054;50.966;7.094;2022-08-01T04:29:39;29.00;51.60
11989;DHT22;6054;50.966;7.094;2022-08-01T04:32:10;29.00;51.70
11989;DHT22;6054;50.966;7.094;2022-08-01T04:34:39;29.00;51.70
11989;DHT22;6054;50.966;7.094;2022-08-01T04:37:09;29.00;51.80
11989;DHT22;6054;50.966;7.094;2022-08-01T04:39:37;29.00;51.70
11989;DHT22;6054;50.966;7.094;2022-08-01T04:42:06;29.00;51.80
11989;DHT22;6054;50.966;7.094;2022-08-01T04:44:33;29.00;51.70
11989;DHT22;6054;50.966;7.094;2022-08-01T04:47:03;29.10;51.80
11989;DHT22;6054;50.966;7.094;2022-08-01T04:49:31;29.00;51.80
11989;DHT22;6054;50.966;7.094;2022-08-01T04:51:58;29.00;51.60
11989;DHT22;6054;50.966;7.094;2022-08-01T04:54:26;29.00;51.60
11989;DHT22;6054;50.966;7.094;2022-08-01T04:56:53;29.00;51.90
11989;DHT22;6054;50.966;7.094;2022-08-01T04:59:21;29.00;52.00
11989;DHT22;6054;50.966;7.094;2022-08-01T05:02:08;29.00;52.00
11989;DHT22;6054;50.966;7.094;2022-08-01T05:04:35;29.00;52.00
11989;DHT22;6054;50.966;7.094;2022-08-01T05:07:03;29.00;52.00
11989;DHT22;6054;50.966;7.094;2022-08-01T05:09:30;29.00;52.00
11989;DHT22;6054;50.966;7.094;2022-08-01T05:11:57;29.00;51.90
11989;DHT22;6054;50.966;7.094;2022-08-01T05:14:24;29.00;52.00
11989;DHT22;6054;50.966;7.094;2022-08-01T05:16:51;29.00;51.90
11989;DHT22;6054;50.966;7.094;2022-08-01T05:19:20;29.00;51.70
11989;DHT22;6054;50.966;7.094;2022-08-01T05:21:47;29.00;52.00
11989;DHT22;6054;50.966;7.094;2022-08-01T05:24:14;29.00;51.90
11989;DHT22;6054;50.966;7.094;2022-08-01T05:26:40;29.20;51.70
11989;DHT22;6054;50.966;7.094;2022-08-01T05:29:07;29.00;51.60
11989;DHT22;6054;50.966;7.094;2022-08-01T05:31:34;29.00;51.90
11989;DHT22;6054;50.966;7.094;2022-08-01T05:34:01;29.00;51.80
11989;DHT22;6054;50.966;7.094;2022-08-01T05:36:29;29.00;52.00
11989;DHT22;6054;50.966;7.094;2022-08-01T05:38:56;29.00;52.00
11989;DHT22;6054;50.966;7.094;2022-08-01T05:41:23;29.00;51.80
11989;DHT22;6054;50.966;7.094;2022-08-01T05:43:50;29.00;51.70
11989;DHT22;6054;50.966;7.094;2022-08-01T05:46:16;29.00;52.00
11989;DHT22;6054;50.966;7.094;2022-08-01T05:48:43;29.00;52.00
11989;DHT22;6054;50.966;7.094;2022-08-01T05:51:10;29.00;51.80
11989;DHT22;6054;50.966;7.094;2022-08-01T05:53:38;29.00;51.70
11989;DHT22;6054;50.966;7.094;2022-08-01T05:56:05;29.00;51.60
11989;DHT22;6054;50.966;7.094;2022-08-01T05:58:32;29.00;51.80
11989;DHT22;6054;50.966;7.094;2022-08-01T06:00:59;29.00;52.00
11989;DHT22;6054;50.966;7.094;2022-08-01T06:03:25;29.20;52.10
11989;DHT22;6054;50.966;7.094;2022-08-01T06:05:56;29.00;52.30
11989;DHT22;6054;50.966;7.094;2022-08-01T06:08:23;29.00;52.50
11989;DHT22;6054;50.966;7.094;2022-08-01T06:10:51;29.00;52.50
11989;DHT22;6054;50.966;7.094;2022-08-01T06:13:18;29.00;52.50
11989;DHT22;6054;50.966;7.094;2022-08-01T06:15:45;29.00;52.50
11989;DHT22;6054;50.966;7.094;2022-08-01T06:18:13;29.00;52.90
11989;DHT22;6054;50.966;7.094;2022-08-01T06:20:40;29.00;52.90
11989;DHT22;6054;50.966;7.094;2022-08-01T06:23:07;29.00;52.70
11989;DHT22;6054;50.966;7.094;2022-08-01T06:25:33;29.00;53.10
11989;DHT22;6054;50.966;7.094;2022-08-01T06:28:02;29.00;52.50
11989;DHT22;6054;50.966;7.094;2022-08-01T06:30:29;29.00;53.00
11989;DHT22;6054;50.966;7.094;2022-08-01T06:32:56;29.00;52.70
11989;DHT22;6054;50.966;7.094;2022-08-01T06:35:24;29.00;52.70
11989;DHT22;6054;50.966;7.094;2022-08-01T06:37:51;29.40;53.00
11989;DHT22;6054;50.966;7.094;2022-08-01T06:40:18;29.10;52.70
11989;DHT22;6054;50.966;7.094;2022-08-01T06:42:45;29.10;52.60
11989;DHT22;6054;50.966;7.094;2022-08-01T06:45:14;29.10;52.80
11989;DHT22;6054;50.966;7.094;2022-08-01T06:47:41;29.10;52.50
11989;DHT22;6054;50.966;7.094;2022-08-01T06:50:10;29.20;52.60
11989;DHT22;6054;50.966;7.094;2022-08-01T06:52:37;29.20;52.50
11989;DHT22;6054;50.966;7.094;2022-08-01T06:55:05;29.40;52.20
11989;DHT22;6054;50.966;7.094;2022-08-01T06:57:32;29.30;52.10
11989;DHT22;6054;50.966;7.094;2022-08-01T07:00:02;29.30;52.00
11989;DHT22;6054;50.966;7.094;2022-08-01T07:02:32;29.30;52.10
11989;DHT22;6054;50.966;7.094;2022-08-01T07:04:58;29.30;51.80
11989;DHT22;6054;50.966;7.094;2022-08-01T07:07:26;29.40;51.70
11989;DHT22;6054;50.966;7.094;2022-08-01T07:09:53;29.40;51.70
11989;DHT22;6054;50.966;7.094;2022-08-01T07:12:19;29.40;51.30
11989;DHT22;6054;50.966;7.094;2022-08-01T07:14:46;29.40;51.30
11989;DHT22;6054;50.966;7.094;2022-08-01T07:17:13;29.40;51.20
11989;DHT22;6054;50.966;7.094;2022-08-01T07:19:41;29.40;51.30
11989;DHT22;6054;50.966;7.094;2022-08-01T07:22:08;29.40;51.30
11989;DHT22;6054;50.966;7.094;2022-08-01T07:24:35;29.50;51.10
11989;DHT22;6054;50.966;7.094;2022-08-01T07:27:02;29.50;51.10
11989;DHT22;6054;50.966;7.094;2022-08-01T07:29:28;29.50;51.00
11989;DHT22;6054;50.966;7.094;2022-08-01T07:31:56;29.50;50.90
11989;DHT22;6054;50.966;7.094;2022-08-01T07:34:24;29.50;51.00
11989;DHT22;6054;50.966;7.094;2022-08-01T07:36:53;29.50;50.50
11989;DHT22;6054;50.966;7.094;2022-08-01T07:39:20;29.50;50.30
11989;DHT22;6054;50.966;7.094;2022-08-01T07:41:47;29.60;50.50
11989;DHT22;6054;50.966;7.094;2022-08-01T07:44:14;29.50;50.30
11989;DHT22;6054;50.966;7.094;2022-08-01T07:46:41;29.60;50.00
11989;DHT22;6054;50.966;7.094;2022-08-01T07:49:07;29.60;50.00
11989;DHT22;6054;50.966;7.094;2022-08-01T07:51:34;29.90;49.90
11989;DHT22;6054;50.966;7.094;2022-08-01T07:54:02;29.70;49.20
11989;DHT22;6054;50.966;7.094;2022-08-01T07:56:29;29.70;49.20
11989;DHT22;6054;50.966;7.094;2022-08-01T07:58:56;29.80;49.30
11989;DHT22;6054;50.966;7.094;2022-08-01T08:01:23;29.80;49.10
11989;DHT22;6054;50.966;7.094;2022-08-01T08:03:49;29.80;48.70
11989;DHT22;6054;50.966;7.094;2022-08-01T08:06:16;29.90;48.80
11989;DHT22;6054;50.966;7.094;2022-08-01T08:08:43;29.90;48.40
11989;DHT22;6054;50.966;7.094;2022-08-01T08:11:11;29.90;48.50
11989;DHT22;6054;50.966;7.094;2022-08-01T08:13:38;29.90;48.30
11989;DHT22;6054;50.966;7.094;2022-08-01T08:16:05;30.00;48.60
11989;DHT22;6054;50.966;7.094;2022-08-01T08:18:31;29.90;48.40
11989;DHT22;6054;50.966;7.094;2022-08-01T08:20:58;29.80;48.50
11989;DHT22;6054;50.966;7.094;2022-08-01T08:23:25;29.80;48.70
11989;DHT22;6054;50.966;7.094;2022-08-01T08:26:11;29.80;48.70
11989;DHT22;6054;50.966;7.094;2022-08-01T08:28:38;29.80;48.50
11989;DHT22;6054;50.966;7.094;2022-08-01T08:31:05;29.90;49.00
11989;DHT22;6054;50.966;7.094;2022-08-01T08:33:31;30.00;49.00
11989;DHT22;6054;50.966;7.094;2022-08-01T08:35:58;30.00;48.90
11989;DHT22;6054;50.966;7.094;2022-08-01T08:38:25;30.10;48.70
11989;DHT22;6054;50.966;7.094;2022-08-01T08:40:53;30.30;48.30
11989;DHT22;6054;50.966;7.094;2022-08-01T08:43:21;30.40;48.20
11989;DHT22;6054;50.966;7.094;2022-08-01T08:45:50;30.50;48.20
11989;DHT22;6054;50.966;7.094;2022-08-01T08:48:17;30.60;47.50
11989;DHT22;6054;50.966;7.094;2022-08-01T08:50:45;30.70;47.30
11989;DHT22;6054;50.966;7.094;2022-08-01T08:53:13;30.90;47.50
11989;DHT22;6054;50.966;7.094;2022-08-01T08:55:42;30.70;47.30
11989;DHT22;6054;50.966;7.094;2022-08-01T08:58:11;30.70;46.70
11989;DHT22;6054;50.966;7.094;2022-08-01T09:00:40;30.70;46.30
11989;DHT22;6054;50.966;7.094;2022-08-01T09:03:07;30.60;46.00
11989;DHT22;6054;50.966;7.094;2022-08-01T09:05:34;30.60;46.20
11989;DHT22;6054;50.966;7.094;2022-08-01T09:08:00;30.60;46.40
11989;DHT22;6054;50.966;7.094;2022-08-01T09:10:27;30.60;46.60
11989;DHT22;6054;50.966;7.094;2022-08-01T09:13:06;30.60;46.20
11989;DHT22;6054;50.966;7.094;2022-08-01T09:15:44;30.60;46.40
11989;DHT22;6054;50.966;7.094;2022-08-01T09:18:30;30.60;46.40
11989;DHT22;6054;50.966;7.094;2022-08-01T09:21:12;30.70;46.70
11989;DHT22;6054;50.966;7.094;2022-08-01T09:23:42;30.70;46.50
11989;DHT22;6054;50.966;7.094;2022-08-01T09:26:11;30.70;46.30
11989;DHT22;6054;50.966;7.094;2022-08-01T09:28:39;30.80;45.90
11989;DHT22;6054;50.966;7.094;2022-08-01T09:31:08;30.80;46.00
11989;DHT22;6054;50.966;7.094;2022-08-01T09:33:53;30.80;45.80
11989;DHT22;6054;50.966;7.094;2022-08-01T09:36:21;30.80;45.70
11989;DHT22;6054;50.966;7.094;2022-08-01T09:38:48;30.90;45.70
11989;DHT22;6054;50.966;7.094;2022-08-01T09:41:15;30.90;45.30
11989;DHT22;6054;50.966;7.094;2022-08-01T09:43:48;31.10;45.40
11989;DHT22;6054;50.966;7.094;2022-08-01T09:46:17;31.00;45.30
11989;DHT22;6054;50.966;7.094;2022-08-01T09:48:58;31.10;44.70
11989;DHT22;6054;50.966;7.094;2022-08-01T09:51:31;31.30;44.90
11989;DHT22;6054;50.966;7.094;2022-08-01T09:53:57;31.10;44.40
11989;DHT22;6054;50.966;7.094;2022-08-01T09:56:25;31.30;44.20
11989;DHT22;6054;50.966;7.094;2022-08-01T09:58:55;31.10;44.20
11989;DHT22;6054;50.966;7.094;2022-08-01T10:01:24;31.20;44.20
11989;DHT22;6054;50.966;7.094;2022-08-01T10:04:08;31.20;44.00
11989;DHT22;6054;50.966;7.094;2022-08-01T10:06:36;31.20;44.50
11989;DHT22;6054;50.966;7.094;2022-08-01T10:09:03;31.30;44.60
11989;DHT22;6054;50.966;7.094;2022-08-01T10:11:31;31.30;44.50
11989;DHT22;6054;50.966;7.094;2022-08-01T10:13:59;31.50;44.00
11989;DHT22;6054;50.966;7.094;2022-08-01T10:16:30;31.60;44.40
11989;DHT22;6054;50.966;7.094;2022-08-01T10:18:57;31.70;43.50
11989;DHT22;6054;50.966;7.094;2022-08-01T10:21:25;31.80;43.50
11989;DHT22;6054;50.966;7.094;2022-08-01T10:23:54;32.00;43.60
11989;DHT22;6054;50.966;7.094;2022-08-01T10:26:25;31.90;43.50
11989;DHT22;6054;50.966;7.094;2022-08-01T10:28:54;31.90;43.30
11989;DHT22;6054;50.966;7.094;2022-08-01T10:31:23;32.00;43.20
11989;DHT22;6054;50.966;7.094;2022-08-01T10:33:59;32.10;42.70
11989;DHT22;6054;50.966;7.094;2022-08-01T10:36:27;32.10;42.30
11989;DHT22;6054;50.966;7.094;2022-08-01T10:38:55;32.20;42.60
11989;DHT22;6054;50.966;7.094;2022-08-01T10:41:24;32.30;42.20
11989;DHT22;6054;50.966;7.094;2022-08-01T10:43:52;32.40;42.00
11989;DHT22;6054;50.966;7.094;2022-08-01T10:46:19;32.60;42.20
11989;DHT22;6054;50.966;7.094;2022-08-01T10:48:50;32.50;41.10
11989;DHT22;6054;50.966;7.094;2022-08-01T10:51:20;32.50;41.60
11989;DHT22;6054;50.966;7.094;2022-08-01T10:53:50;32.50;41.20
11989;DHT22;6054;50.966;7.094;2022-08-01T10:56:17;32.50;41.50
11989;DHT22;6054;50.966;7.094;2022-08-01T10:58:47;32.50;41.10
11989;DHT22;6054;50.966;7.094;2022-08-01T11:01:20;32.40;41.30
11989;DHT22;6054;50.966;7.094;2022-08-01T11:04:12;32.50;41.60
11989;DHT22;6054;50.966;7.094;2022-08-01T11:07:07;32.50;41.70
11989;DHT22;6054;50.966;7.094;2022-08-01T11:09:42;32.50;41.70
11989;DHT22;6054;50.966;7.094;2022-08-01T11:12:11;32.60;41.50
11989;DHT22;6054;50.966;7.094;2022-08-01T11:17:49;32.60;40.90
11989;DHT22;6054;50.966;7.094;2022-08-01T11:20:18;32.70;40.10
11989;DHT22;6054;50.966;7.094;2022-08-01T11:23:22;32.80;39.90
11989;DHT22;6054;50.966;7.094;2022-08-01T11:26:21;32.70;39.60
11989;DHT22;6054;50.966;7.094;2022-08-01T11:29:11;32.70;39.60
11989;DHT22;6054;50.966;7.094;2022-08-01T11:31:39;32.70;40.10
11989;DHT22;6054;50.966;7.094;2022-08-01T11:34:06;32.80;39.30
11989;DHT22;6054;50.966;7.094;2022-08-01T11:36:32;32.80;38.50
11989;DHT22;6054;50.966;7.094;2022-08-01T11:39:17;32.90;39.00
11989;DHT22;6054;50.966;7.094;2022-08-01T11:41:47;32.90;39.00
11989;DHT22;6054;50.966;7.094;2022-08-01T11:44:20;33.00;39.40
11989;DHT22;6054;50.966;7.094;2022-08-01T11:46:53;33.00;38.90
11989;DHT22;6054;50.966;7.094;2022-08-01T11:49:26;33.00;38.80
11989;DHT22;6054;50.966;7.094;2022-08-01T11:52:01;33.00;38.60
11989;DHT22;6054;50.966;7.094;2022-08-01T11:54:31;32.90;38.50
11989;DHT22;6054;50.966;7.094;2022-08-01T11:56:59;32.90;38.50
11989;DHT22;6054;50.966;7.094;2022-08-01T11:59:26;33.00;38.40
11989;DHT22;6054;50.966;7.094;2022-08-01T12:01:53;33.00;38.60
11989;DHT22;6054;50.966;7.094;2022-08-01T12:04:20;33.00;38.30
11989;DHT22;6054;50.966;7.094;2022-08-01T12:06:47;33.00;38.00
11989;DHT22;6054;50.966;7.094;2022-08-01T12:09:15;33.00;37.80
11989;DHT22;6054;50.966;7.094;2022-08-01T12:11:44;33.00;38.80
11989;DHT22;6054;50.966;7.094;2022-08-01T12:14:16;33.00;38.40
11989;DHT22;6054;50.966;7.094;2022-08-01T12:16:51;33.00;38.70
11989;DHT22;6054;50.966;7.094;2022-08-01T12:19:20;33.10;38.20
11989;DHT22;6054;50.966;7.094;2022-08-01T12:22:08;33.20;37.60
11989;DHT22;6054;50.966;7.094;2022-08-01T12:24:36;33.20;37.30
11989;DHT22;6054;50.966;7.094;2022-08-01T12:27:05;33.20;37.00
11989;DHT22;6054;50.966;7.094;2022-08-01T12:29:34;33.30;36.90
11989;DHT22;6054;50.966;7.094;2022-08-01T12:32:01;33.30;36.90
11989;DHT22;6054;50.966;7.094;2022-08-01T12:34:28;33.30;36.80
11989;DHT22;6054;50.966;7.094;2022-08-01T12:36:56;33.30;36.70
11989;DHT22;6054;50.966;7.094;2022-08-01T12:39:31;33.30;37.50
11989;DHT22;6054;50.966;7.094;2022-08-01T12:41:58;33.30;37.80
11989;DHT22;6054;50.966;7.094;2022-08-01T12:44:28;33.30;37.20
11989;DHT22;6054;50.966;7.094;2022-08-01T12:46:56;33.30;37.70
11989;DHT22;6054;50.966;7.094;2022-08-01T12:49:23;33.30;37.60
11989;DHT22;6054;50.966;7.094;2022-08-01T12:51:51;33.30;37.20
11989;DHT22;6054;50.966;7.094;2022-08-01T12:54:18;33.30;37.20
11989;DHT22;6054;50.966;7.094;2022-08-01T12:56:44;33.30;36.70
11989;DHT22;6054;50.966;7.094;2022-08-01T12:59:22;33.40;36.70
11989;DHT22;6054;50.966;7.094;2022-08-01T13:01:52;33.40;36.60
11989;DHT22;6054;50.966;7.094;2022-08-01T13:04:19;33.40;36.60
11989;DHT22;6054;50.966;7.094;2022-08-01T13:06:46;33.50;36.00
11989;DHT22;6054;50.966;7.094;2022-08-01T13:09:14;33.50;35.70
11989;DHT22;6054;50.966;7.094;2022-08-01T13:11:41;33.60;34.90
11989;DHT22;6054;50.966;7.094;2022-08-01T13:14:09;33.60;35.20
11989;DHT22;6054;50.966;7.094;2022-08-01T13:16:49;33.70;35.50
11989;DHT22;6054;50.966;7.094;2022-08-01T13:19:17;33.80;36.10
11989;DHT22;6054;50.966;7.094;2022-08-01T13:21:54;33.80;35.70
11989;DHT22;6054;50.966;7.094;2022-08-01T13:24:26;33.90;35.70
11989;DHT22;6054;50.966;7.094;2022-08-01T13:26:57;33.90;35.40
11989;DHT22;6054;50.966;7.094;2022-08-01T13:29:32;33.90;35.50
11989;DHT22;6054;50.966;7.094;2022-08-01T13:32:00;33.80;35.60
11989;DHT22;6054;50.966;7.094;2022-08-01T13:34:32;33.90;35.30
11989;DHT22;6054;50.966;7.094;2022-08-01T13:36:59;33.90;35.30
11989;DHT22;6054;50.966;7.094;2022-08-01T13:39:27;33.90;34.80
11989;DHT22;6054;50.966;7.094;2022-08-01T13:42:15;34.00;35.00
11989;DHT22;6054;50.966;7.094;2022-08-01T13:44:45;34.00;34.70
11989;DHT22;6054;50.966;7.094;2022-08-01T13:47:12;34.10;34.10
11989;DHT22;6054;50.966;7.094;2022-08-01T13:49:40;34.00;34.00
11989;DHT22;6054;50.966;7.094;2022-08-01T13:52:07;34.10;33.70
11989;DHT22;6054;50.966;7.094;2022-08-01T13:54:34;34.10;33.70
11989;DHT22;6054;50.966;7.094;2022-08-01T13:57:01;34.10;33.60
11989;DHT22;6054;50.966;7.094;2022-08-01T13:59:28;34.10;32.80
11989;DHT22;6054;50.966;7.094;2022-08-01T14:01:55;34.10;33.10
11989;DHT22;6054;50.966;7.094;2022-08-01T14:04:22;34.10;33.30
11989;DHT22;6054;50.966;7.094;2022-08-01T14:06:50;34.20;33.00
11989;DHT22;6054;50.966;7.094;2022-08-01T14:09:17;34.00;31.60
11989;DHT22;6054;50.966;7.094;2022-08-01T14:11:45;34.00;32.60
11989;DHT22;6054;50.966;7.094;2022-08-01T14:14:12;34.00;32.90
11989;DHT22;6054;50.966;7.094;2022-08-01T14:16:39;34.00;33.40
11989;DHT22;6054;50.966;7.094;2022-08-01T14:19:06;34.00;32.10
11989;DHT22;6054;50.966;7.094;2022-08-01T14:21:33;34.00;32.50
11989;DHT22;6054;50.966;7.094;2022-08-01T14:24:01;34.10;33.10
11989;DHT22;6054;50.966;7.094;2022-08-01T14:26:28;34.00;31.90
11989;DHT22;6054;50.966;7.094;2022-08-01T14:28:55;33.80;31.80
11989;DHT22;6054;50.966;7.094;2022-08-01T14:31:22;34.00;33.00
11989;DHT22;6054;50.966;7.094;2022-08-01T14:33:49;34.10;32.80
11989;DHT22;6054;50.966;7.094;2022-08-01T14:36:15;34.10;32.80
11989;DHT22;6054;50.966;7.094;2022-08-01T14:38:42;34.10;33.00
11989;DHT22;6054;50.966;7.094;2022-08-01T14:41:10;34.10;32.30
11989;DHT22;6054;50.966;7.094;2022-08-01T14:43:37;34.00;32.50
11989;DHT22;6054;50.966;7.094;2022-08-01T14:46:04;34.00;32.40
11989;DHT22;6054;50.966;7.094;2022-08-01T14:48:31;34.00;32.30
11989;DHT22;6054;50.966;7.094;2022-08-01T14:50:58;34.00;32.40
11989;DHT22;6054;50.966;7.094;2022-08-01T14:53:27;33.90;32.50
11989;DHT22;6054;50.966;7.094;2022-08-01T14:55:55;34.00;31.80
11989;DHT22;6054;50.966;7.094;2022-08-01T14:58:23;34.00;32.50
11989;DHT22;6054;50.966;7.094;2022-08-01T15:00:50;34.00;32.10
11989;DHT22;6054;50.966;7.094;2022-08-01T15:03:22;34.00;32.70
11989;DHT22;6054;50.966;7.094;2022-08-01T15:05:49;34.00;32.70
11989;DHT22;6054;50.966;7.094;2022-08-01T15:08:18;34.10;32.90
11989;DHT22;6054;50.966;7.094;2022-08-01T15:10:45;34.10;33.80
11989;DHT22;6054;50.966;7.094;2022-08-01T15:13:12;34.10;34.50
11989;DHT22;6054;50.966;7.094;2022-08-01T15:15:40;34.10;34.10
11989;DHT22;6054;50.966;7.094;2022-08-01T15:18:07;34.10;34.10
11989;DHT22;6054;50.966;7.094;2022-08-01T15:20:33;34.10;34.20
11989;DHT22;6054;50.966;7.094;2022-08-01T15:23:00;34.10;34.20
11989;DHT22;6054;50.966;7.094;2022-08-01T15:25:27;34.10;34.30
11989;DHT22;6054;50.966;7.094;2022-08-01T15:28:08;34.10;34.50
11989;DHT22;6054;50.966;7.094;2022-08-01T15:30:35;34.10;34.30
11989;DHT22;6054;50.966;7.094;2022-08-01T15:33:03;34.10;34.10
11989;DHT22;6054;50.966;7.094;2022-08-01T15:35:30;34.10;33.40
11989;DHT22;6054;50.966;7.094;2022-08-01T15:37:57;34.00;33.50
11989;DHT22;6054;50.966;7.094;2022-08-01T15:40:24;34.30;33.40
11989;DHT22;6054;50.966;7.094;2022-08-01T15:42:52;34.10;33.70
11989;DHT22;6054;50.966;7.094;2022-08-01T15:45:19;34.10;34.30
11989;DHT22;6054;50.966;7.094;2022-08-01T15:47:46;34.00;35.10
11989;DHT22;6054;50.966;7.094;2022-08-01T15:50:14;34.10;35.30
11989;DHT22;6054;50.966;7.094;2022-08-01T15:52:41;34.10;35.30
11989;DHT22;6054;50.966;7.094;2022-08-01T15:55:08;34.10;35.60
11989;DHT22;6054;50.966;7.094;2022-08-01T15:57:35;34.10;35.60
11989;DHT22;6054;50.966;7.094;2022-08-01T16:00:04;34.10;35.50